Intercession City, Florida
Current Conditions -  °F | °C
As of 8:50 AM on Sunday 21 Dec 2014 (Local Time) from KISM Reporting Station
Scattered Clouds Scattered Clouds  
Wind Chill: 66°   Ceiling: Unl
Heat Index: 66°   Visibility: 10mi
Dew Point: 64°   Wind: 5mph
Humidity: 94%   Direction: 180°S
Pressure: 30.12"   Gusts: NA
Location:  28.26°N, 81.51°W
Report Text: KISM 211350Z 18004KT 10SM SCT250 19/18 A3012
Loading
Personal Weather Stations






























Interactive Weather Map New forecast layout! Learn more

10-Day Weather Forecast

Advertisements
Track Severe Weather on mobile